createdAt,value
2023-03-23T15:58:21.112Z,99690.00
2023-03-23T16:00:49.272Z,99687.09
2023-03-23T16:03:27.461Z,99686.31
2023-03-23T16:05:56.279Z,99681.91
2023-03-23T16:08:23.151Z,99684.16
2023-03-23T16:10:50.646Z,99671.06
2023-03-23T16:13:18.309Z,99663.09
2023-03-23T16:15:47.054Z,99675.41
2023-03-23T16:18:22.798Z,99670.09
2023-03-23T16:20:50.063Z,99662.25
2023-03-23T16:23:16.898Z,99668.59
2023-03-23T16:25:43.828Z,99673.28
2023-03-23T16:28:13.097Z,99665.69
2023-03-23T16:30:40.781Z,99676.28
2023-03-23T16:33:07.347Z,99669.31
2023-03-23T16:35:34.363Z,99657.09
2023-03-23T16:38:07.144Z,99648.38
2023-03-23T16:40:35.164Z,99653.63
2023-03-23T16:43:01.632Z,99655.41
2023-03-23T16:45:35.648Z,99657.19
2023-03-23T16:48:02.291Z,99654.75
2023-03-23T16:50:30.017Z,99652.34
2023-03-23T16:52:57.251Z,99664.81
2023-03-23T16:55:26.082Z,99672.84
2023-03-23T16:57:58.207Z,99672.00
2023-03-23T17:00:32.751Z,99676.41
2023-03-23T17:02:59.630Z,99677.25
2023-03-23T17:05:28.459Z,99680.94
2023-03-23T17:07:56.038Z,99688.81
2023-03-23T17:10:25.239Z,99692.38
2023-03-23T17:12:51.872Z,99692.59
2023-03-23T17:15:18.997Z,99696.16
2023-03-23T17:17:45.585Z,99705.59
2023-03-23T17:20:13.364Z,99703.53
2023-03-23T17:22:40.569Z,99711.03
2023-03-23T17:25:08.593Z,99705.78
2023-03-23T17:27:39.118Z,99711.22
2023-03-23T17:30:07.412Z,99714.84
2023-03-23T17:32:34.324Z,99717.53
2023-03-23T17:35:01.640Z,99713.97
2023-03-23T17:37:28.120Z,99718.47
2023-03-23T17:39:54.539Z,99714.31
2023-03-23T17:42:21.068Z,99718.47
2023-03-23T17:44:47.539Z,99719.38
2023-03-23T17:47:14.032Z,99708.88
2023-03-23T17:49:40.539Z,99709.22
2023-03-23T17:52:07.161Z,99706.84
2023-03-23T17:54:33.743Z,99701.88
2023-03-23T17:57:03.805Z,99705.44
2023-03-23T17:59:30.910Z,99707.78
2023-03-23T18:01:57.886Z,99704.38
2023-03-23T18:04:26.854Z,99716.09
2023-03-23T18:06:57.568Z,99714.44
2023-03-23T18:09:25.397Z,99708.34
2023-03-23T18:11:52.981Z,99706.91
2023-03-23T18:14:20.727Z,99703.53
2023-03-23T18:16:48.036Z,99705.41
2023-03-23T18:19:14.979Z,99696.81
2023-03-23T18:21:42.893Z,99692.47
2023-03-23T18:24:10.800Z,99700.53
2023-03-23T18:26:37.349Z,99692.06
2023-03-23T18:29:03.970Z,99690.50
2023-03-23T18:31:30.694Z,99695.03
2023-03-23T18:33:57.246Z,99694.13
2023-03-23T18:36:25.856Z,99694.13
2023-03-23T18:38:56.340Z,99683.63
2023-03-23T18:41:23.328Z,99680.13
2023-03-23T18:43:49.907Z,99677.47
2023-03-23T18:46:18.846Z,99675.78
2023-03-23T18:48:45.422Z,99675.88
2023-03-23T18:51:12.469Z,99669.69
2023-03-23T18:53:39.225Z,99675.88
2023-03-23T18:56:18.189Z,99660.44
2023-03-23T18:58:45.622Z,99651.09
2023-03-23T19:01:16.180Z,99645.88
2023-03-23T19:03:43.452Z,99640.59
2023-03-23T19:06:20.272Z,99637.88
2023-03-23T19:08:47.986Z,99650.94
2023-03-23T19:11:28.466Z,99641.50
2023-03-23T19:14:02.408Z,99646.69
2023-03-23T19:16:32.141Z,99641.53
2023-03-23T19:19:01.341Z,99635.34
2023-03-23T19:21:29.837Z,99637.97
2023-03-23T19:23:58.102Z,99641.50
2023-03-23T19:26:29.935Z,99637.75
2023-03-23T19:31:26.051Z,99631.78
2023-03-23T19:33:53.441Z,99635.97
2023-03-23T19:36:22.470Z,99628.94
2023-03-23T19:38:50.665Z,99625.34
2023-03-23T19:41:19.000Z,99626.84
2023-03-23T19:43:46.017Z,99623.94
2023-03-23T19:46:14.034Z,99608.25
2023-03-23T19:48:40.590Z,99611.84
2023-03-23T19:51:09.169Z,99605.81
2023-03-23T19:53:35.875Z,99619.69
2023-03-23T19:56:03.766Z,99609.81
2023-03-23T19:58:32.349Z,99613.22
2023-03-23T20:01:00.672Z,99603.72
2023-03-23T20:03:27.183Z,99601.16
2023-03-23T20:06:01.274Z,99601.16
2023-03-23T20:08:27.986Z,99595.91
2023-03-23T20:11:03.196Z,99600.81
2023-03-23T20:13:30.006Z,99598.03
2023-03-23T20:15:59.715Z,99596.41
2023-03-23T20:18:29.188Z,99588.38
2023-03-23T20:21:06.814Z,99589.13
2023-03-23T20:23:34.664Z,99591.81
2023-03-23T20:26:06.798Z,99593.63
2023-03-23T20:28:33.782Z,99582.38
2023-03-23T20:31:19.812Z,99578.75
2023-03-23T20:34:00.885Z,99578.03
2023-03-23T20:36:42.154Z,99575.19
2023-03-23T20:39:14.575Z,99566.41
2023-03-23T20:41:42.015Z,99561.34
2023-03-23T20:44:13.865Z,99566.53
2023-03-23T20:46:41.285Z,99556.03
2023-03-23T20:49:08.321Z,99552.44
2023-03-23T20:51:35.012Z,99549.00
2023-03-23T20:54:02.112Z,99542.13
2023-03-23T20:56:28.777Z,99548.38
2023-03-23T20:58:55.947Z,99540.41
2023-03-23T21:01:22.695Z,99540.16
2023-03-23T21:03:54.145Z,99546.94
2023-03-23T21:06:21.573Z,99545.41
2023-03-23T21:08:48.410Z,99545.53
2023-03-23T21:11:19.951Z,99547.19
2023-03-23T21:13:47.177Z,99546.38
2023-03-23T21:16:13.686Z,99540.41
2023-03-23T21:18:41.820Z,99539.69
2023-03-23T21:21:11.131Z,99540.97
2023-03-23T21:23:46.973Z,99541.13
2023-03-23T21:26:18.704Z,99530.88
2023-03-23T21:28:46.649Z,99527.63
2023-03-23T21:31:14.969Z,99534.00
2023-03-23T21:33:41.565Z,99523.59
2023-03-23T21:36:08.134Z,99524.66
2023-03-23T21:38:34.955Z,99523.78
2023-03-23T21:41:08.061Z,99528.13
2023-03-23T21:43:34.980Z,99534.16
2023-03-23T21:46:04.735Z,99537.63
2023-03-23T21:48:32.945Z,99521.81
2023-03-23T21:51:08.612Z,99519.34
2023-03-23T21:53:37.089Z,99513.28
2023-03-23T21:56:06.142Z,99518.59
2023-03-23T21:58:33.257Z,99515.97
2023-03-23T22:01:01.098Z,99516.81
2023-03-23T22:03:32.276Z,99517.75
2023-03-23T22:06:06.703Z,99509.75
2023-03-23T22:08:33.270Z,99513.28
2023-03-23T22:11:02.556Z,99517.63
2023-03-23T22:13:31.099Z,99513.16
2023-03-23T22:16:03.605Z,99509.75
2023-03-23T22:18:30.544Z,99502.78
2023-03-23T22:20:59.076Z,99507.25
2023-03-23T22:23:26.744Z,99491.66
2023-03-23T22:25:53.942Z,99504.78
2023-03-23T22:28:20.557Z,99490.16
2023-03-23T22:30:47.624Z,99484.19
2023-03-23T22:33:14.834Z,99480.81
2023-03-23T22:35:41.338Z,99480.13
2023-03-23T22:38:07.860Z,99482.06
2023-03-23T22:40:34.846Z,99474.31
2023-03-23T22:43:01.387Z,99470.91
2023-03-23T22:45:28.097Z,99466.59
2023-03-23T22:47:56.248Z,99464.03
2023-03-23T22:50:24.209Z,99456.28
2023-03-23T22:52:50.905Z,99447.56
2023-03-23T22:55:17.562Z,99443.31
2023-03-23T22:57:44.089Z,99439.91
2023-03-23T23:00:14.740Z,99437.38
2023-03-23T23:02:43.205Z,99420.88
2023-03-23T23:05:13.742Z,99420.88
2023-03-23T23:07:40.525Z,99413.94
2023-03-23T23:10:07.465Z,99410.47
2023-03-23T23:12:35.204Z,99410.59
2023-03-23T23:15:05.770Z,99397.41
2023-03-23T23:17:32.740Z,99398.34
2023-03-23T23:20:00.081Z,99390.56
2023-03-23T23:22:26.835Z,99382.72
2023-03-23T23:24:53.342Z,99384.56
2023-03-23T23:27:19.870Z,99384.56
2023-03-23T23:29:46.355Z,99370.69
2023-03-23T23:32:13.078Z,99369.84
2023-03-23T23:34:39.794Z,99367.22
2023-03-23T23:37:06.992Z,99375.09
2023-03-23T23:39:38.122Z,99364.59
2023-03-23T23:42:05.807Z,99355.97
2023-03-23T23:44:32.523Z,99357.78
2023-03-23T23:46:59.193Z,99354.25
2023-03-23T23:49:28.487Z,99350.84
2023-03-23T23:51:56.352Z,99349.13
2023-03-23T23:54:23.015Z,99344.75
2023-03-23T23:56:50.882Z,99335.19
2023-03-23T23:59:17.491Z,99332.63
